createdAt,value
2018-09-23T00:01:02.316Z,100390.34
2018-09-23T00:06:05.709Z,100391.08
2018-09-23T00:11:09.067Z,100381.01
2018-09-23T00:16:12.680Z,100386.04
2018-09-23T00:21:16.044Z,100363.27
2018-09-23T00:26:19.367Z,100347.96
2018-09-23T00:31:22.719Z,100358.55
2018-09-23T00:36:26.035Z,100367.06
2018-09-23T00:41:29.359Z,100362.23
2018-09-23T00:46:32.646Z,100357.93
2018-09-23T00:51:35.935Z,100351.22
2018-09-23T00:56:39.335Z,100353.70
2018-09-23T01:01:42.647Z,100356.88
2018-09-23T01:06:45.982Z,100356.84
2018-09-23T01:11:49.337Z,100344.12
2018-09-23T01:16:52.634Z,100347.09
2018-09-23T01:21:55.934Z,100342.15
2018-09-23T01:26:59.235Z,100337.23
2018-09-23T01:32:02.538Z,100333.13
2018-09-23T01:37:05.902Z,100315.39
2018-09-23T01:42:09.200Z,100305.55
2018-09-23T01:47:12.538Z,100294.97
2018-09-23T01:52:15.852Z,100294.67
2018-09-23T01:57:19.167Z,100298.37
2018-09-23T02:02:22.523Z,100294.06
2018-09-23T02:07:25.848Z,100300.13
2018-09-23T02:12:29.184Z,100307.20
2018-09-23T02:17:32.560Z,100300.22
2018-09-23T02:22:35.866Z,100296.73
2018-09-23T02:27:39.195Z,100290.88
2018-09-23T02:32:42.504Z,100281.84
2018-09-23T02:37:45.814Z,100278.06
2018-09-23T02:42:49.202Z,100271.52
2018-09-23T02:47:52.527Z,100256.53
2018-09-23T02:52:55.866Z,100263.51
2018-09-23T02:57:59.206Z,100258.78
2018-09-23T03:03:02.516Z,100257.05
2018-09-23T03:08:05.839Z,100249.14
2018-09-23T03:13:09.237Z,100247.80
2018-09-23T03:18:12.540Z,100244.92
2018-09-23T03:23:15.875Z,100252.53
2018-09-23T03:28:19.226Z,100244.84
2018-09-23T03:33:22.539Z,100226.03
2018-09-23T03:38:26.011Z,100213.84
2018-09-23T03:43:29.350Z,100216.52
2018-09-23T03:48:32.684Z,100219.78
2018-09-23T03:53:36.055Z,100224.30
2018-09-23T03:58:39.410Z,100213.84
2018-09-23T04:03:42.764Z,100200.50
2018-09-23T04:08:46.075Z,100194.66
2018-09-23T04:13:49.423Z,100188.50
2018-09-23T04:18:52.803Z,100185.83
2018-09-23T04:23:56.157Z,100176.80
2018-09-23T04:28:59.479Z,100177.01
2018-09-23T04:34:02.874Z,100176.16
2018-09-23T04:39:08.106Z,100186.83
2018-09-23T04:44:11.414Z,100175.04
2018-09-23T04:49:14.798Z,100158.00
2018-09-23T04:54:18.123Z,100162.81
2018-09-23T04:59:21.470Z,100169.19
2018-09-23T05:04:24.847Z,100166.73
2018-09-23T05:09:28.183Z,100163.55
2018-09-23T05:14:31.491Z,100166.53
2018-09-23T05:19:34.880Z,100163.25
2018-09-23T05:24:39.082Z,100154.73
2018-09-23T05:29:42.470Z,100158.33
2018-09-23T05:34:45.824Z,100145.47
2018-09-23T05:39:49.190Z,100143.33
2018-09-23T05:44:52.542Z,100129.58
2018-09-23T05:49:55.882Z,100117.28
2018-09-23T05:54:59.250Z,100099.11
2018-09-23T06:00:02.615Z,100093.45
2018-09-23T06:05:06.626Z,100099.89
2018-09-23T06:10:09.950Z,100098.14
2018-09-23T06:15:13.267Z,100112.72
2018-09-23T06:20:16.583Z,100098.44
2018-09-23T06:25:20.077Z,100073.28
2018-09-23T06:30:23.379Z,100090.01
2018-09-23T06:35:26.745Z,100081.67
2018-09-23T06:40:30.115Z,100082.93
2018-09-23T06:45:33.512Z,100082.22
2018-09-23T06:50:36.823Z,100098.04
2018-09-23T06:55:40.171Z,100098.25
2018-09-23T07:00:43.563Z,100085.75
2018-09-23T07:05:46.991Z,100089.02
2018-09-23T07:10:50.453Z,100088.96
2018-09-23T07:15:53.970Z,100095.45
2018-09-23T07:20:57.417Z,100100.78
2018-09-23T07:26:00.802Z,100075.06
2018-09-23T07:31:04.154Z,100060.36
2018-09-23T07:36:07.486Z,100061.13
2018-09-23T07:41:10.875Z,100066.36
2018-09-23T07:46:14.196Z,100092.23
2018-09-23T07:51:17.554Z,100108.75
2018-09-23T07:56:21.938Z,100087.09
2018-09-23T08:01:25.531Z,100057.81
2018-09-23T08:06:29.413Z,100053.70
2018-09-23T08:11:33.257Z,100053.13
2018-09-23T08:16:36.595Z,100065.55
2018-09-23T08:21:40.016Z,100052.28
2018-09-23T08:26:43.369Z,100047.95
2018-09-23T08:31:46.773Z,100024.28
2018-09-23T08:36:50.104Z,100001.09
2018-09-23T08:41:53.432Z,99989.92
2018-09-23T08:46:56.895Z,99999.98
2018-09-23T08:52:00.280Z,99996.80
2018-09-23T08:57:03.599Z,99993.78
2018-09-23T09:02:06.975Z,99997.27
2018-09-23T09:07:10.311Z,99991.80
2018-09-23T09:12:13.693Z,99993.95
2018-09-23T09:17:17.055Z,99965.27
2018-09-23T09:22:20.410Z,99963.94
2018-09-23T09:27:23.737Z,99951.77
2018-09-23T09:32:27.043Z,99942.65
2018-09-23T09:37:30.361Z,99933.69
2018-09-23T09:42:33.695Z,99921.73
2018-09-23T09:47:37.113Z,99902.59
2018-09-23T09:52:46.471Z,99895.71
2018-09-23T09:57:49.799Z,99887.53
2018-09-23T10:02:53.183Z,99879.58
2018-09-23T10:07:56.500Z,99866.38
2018-09-23T10:12:59.814Z,99871.19
2018-09-23T10:18:03.170Z,99863.09
2018-09-23T10:23:06.605Z,99852.14
2018-09-23T10:28:09.929Z,99828.95
2018-09-23T10:33:13.300Z,99819.24
2018-09-23T10:38:16.648Z,99824.72
2018-09-23T10:43:19.996Z,99811.30
2018-09-23T10:48:23.330Z,99791.47
2018-09-23T10:53:26.699Z,99769.02
2018-09-23T10:58:30.049Z,99761.96
2018-09-23T11:03:33.453Z,99762.94
2018-09-23T11:08:36.787Z,99730.73
2018-09-23T11:13:40.523Z,99707.81
2018-09-23T11:18:46.437Z,99702.26
2018-09-23T11:23:49.795Z,99678.32
2018-09-23T11:28:53.115Z,99658.95
2018-09-23T11:33:57.646Z,99617.08
2018-09-23T11:39:04.169Z,99602.75
2018-09-23T11:44:15.239Z,99606.15
2018-09-23T11:49:18.689Z,99603.35
2018-09-23T11:59:59.788Z,99562.58
2018-09-23T12:05:03.212Z,99535.83
2018-09-23T12:10:06.791Z,99514.56
2018-09-23T12:15:10.123Z,99490.69
2018-09-23T12:20:13.520Z,99486.73
2018-09-23T12:25:16.887Z,99462.92
2018-09-23T12:30:20.476Z,99433.61
2018-09-23T12:35:23.823Z,99397.02
2018-09-23T12:40:27.179Z,99372.99
2018-09-23T12:45:31.626Z,99345.08
2018-09-23T12:50:35.007Z,99316.40
2018-09-23T12:55:38.398Z,99287.56
2018-09-23T13:00:41.791Z,99263.91
2018-09-23T13:05:45.145Z,99245.67
2018-09-23T13:10:48.751Z,99218.41
2018-09-23T13:15:52.116Z,99196.66
2018-09-23T13:20:55.515Z,99191.33
2018-09-23T13:25:58.866Z,99178.44
2018-09-23T13:31:02.198Z,99142.13
2018-09-23T13:36:05.546Z,99130.93
2018-09-23T13:41:09.120Z,99115.20
2018-09-23T13:46:12.499Z,99120.33
2018-09-23T13:51:15.839Z,99134.41
2018-09-23T13:56:19.171Z,99138.09
2018-09-23T14:01:22.543Z,99157.62
2018-09-23T14:06:25.927Z,99134.55
2018-09-23T14:11:30.270Z,99066.65
2018-09-23T14:16:33.643Z,99052.11
2018-09-23T14:21:37.020Z,99003.30
2018-09-23T14:26:40.378Z,98975.75
2018-09-23T14:31:43.718Z,98971.30
2018-09-23T14:36:47.047Z,98916.45
2018-09-23T14:41:50.414Z,98923.11
2018-09-23T14:46:53.756Z,98941.81
2018-09-23T14:51:57.119Z,98896.38
2018-09-23T14:57:00.514Z,98880.28
2018-09-23T15:02:03.842Z,98921.36
2018-09-23T15:07:07.214Z,98837.77
2018-09-23T15:12:10.534Z,98831.78
2018-09-23T15:17:14.101Z,98792.38
2018-09-23T15:22:17.422Z,98767.66
2018-09-23T15:27:20.747Z,98762.76
2018-09-23T15:32:24.103Z,98741.44
2018-09-23T15:37:27.443Z,98810.26
2018-09-23T15:42:30.791Z,98798.02
2018-09-23T15:47:34.207Z,98787.47
2018-09-23T15:52:37.594Z,98903.47
2018-09-23T15:57:40.984Z,98888.39
2018-09-23T16:02:44.300Z,98908.61
2018-09-23T16:07:47.746Z,98900.17
2018-09-23T16:12:51.031Z,98721.39
2018-09-23T16:17:54.339Z,98768.75
2018-09-23T16:22:57.714Z,98724.48
2018-09-23T16:28:01.032Z,98673.77
2018-09-23T16:33:04.367Z,98724.94
2018-09-23T16:38:07.696Z,98861.77
2018-09-23T16:43:11.018Z,98882.80
2018-09-23T16:48:14.403Z,98796.23
2018-09-23T16:53:17.691Z,98693.69
2018-09-23T16:58:21.158Z,98731.22
2018-09-23T17:03:24.450Z,98763.98
2018-09-23T17:08:27.791Z,98817.42
2018-09-23T17:13:31.129Z,98950.14
2018-09-23T17:18:34.427Z,98940.78
2018-09-23T17:23:38.466Z,98936.47
2018-09-23T17:28:42.123Z,98967.97
2018-09-23T17:33:45.847Z,99028.28
2018-09-23T17:38:49.575Z,99030.89
2018-09-23T17:43:54.110Z,99133.61
2018-09-23T17:48:58.026Z,99158.27
2018-09-23T17:54:01.941Z,99168.40
2018-09-23T17:59:05.882Z,99182.00
2018-09-23T18:04:09.290Z,99201.09
2018-09-23T18:09:12.811Z,99144.09
2018-09-23T18:14:16.139Z,99117.41
2018-09-23T18:19:19.429Z,99158.30
2018-09-23T18:24:23.199Z,99216.22
2018-09-23T18:29:26.904Z,99248.50
2018-09-23T18:34:30.337Z,99262.96
2018-09-23T18:39:33.687Z,99193.91
2018-09-23T18:44:37.038Z,99316.56
2018-09-23T18:49:40.310Z,99345.73
2018-09-23T18:54:48.898Z,99423.06
2018-09-23T18:59:52.220Z,99486.48
2018-09-23T19:04:55.522Z,99461.96
2018-09-23T19:09:59.066Z,99490.06
2018-09-23T19:15:03.064Z,99500.17
2018-09-23T19:20:09.495Z,99464.09
2018-09-23T19:25:12.827Z,99507.74
2018-09-23T19:30:16.270Z,99490.16
2018-09-23T19:35:19.568Z,99516.23
2018-09-23T19:40:22.965Z,99514.59
2018-09-23T19:45:26.260Z,99534.73
2018-09-23T19:50:29.583Z,99576.83
2018-09-23T19:55:32.913Z,99642.72
2018-09-23T20:00:36.346Z,99652.73
2018-09-23T20:05:39.626Z,99657.31
2018-09-23T20:10:42.930Z,99690.28
2018-09-23T20:15:46.267Z,99734.18
2018-09-23T20:20:49.571Z,99774.42
2018-09-23T20:25:52.883Z,99827.32
2018-09-23T20:30:57.003Z,99857.01
2018-09-23T20:36:00.311Z,99872.43
2018-09-23T20:41:03.636Z,99866.20
2018-09-23T20:46:07.002Z,99904.36
2018-09-23T20:51:10.323Z,99914.77
2018-09-23T20:56:13.631Z,99948.25
2018-09-23T21:01:16.928Z,99967.15
2018-09-23T21:06:20.266Z,99974.71
2018-09-23T21:11:23.597Z,99989.16
2018-09-23T21:16:26.936Z,100015.39
2018-09-23T21:21:30.274Z,100033.32
2018-09-23T21:26:33.594Z,100043.12
2018-09-23T21:31:36.951Z,100052.92
2018-09-23T21:36:40.280Z,100058.28
2018-09-23T21:41:43.637Z,100073.58
2018-09-23T21:46:46.952Z,100090.02
2018-09-23T21:51:50.325Z,100113.08
2018-09-23T21:56:53.667Z,100119.09
2018-09-23T22:01:57.163Z,100123.89
2018-09-23T22:07:00.554Z,100149.47
2018-09-23T22:12:03.935Z,100161.41
2018-09-23T22:17:07.299Z,100169.06
2018-09-23T22:22:10.639Z,100187.95
2018-09-23T22:27:13.976Z,100204.89
2018-09-23T22:32:17.336Z,100191.50
2018-09-23T22:37:20.743Z,100208.25
2018-09-23T22:42:24.241Z,100201.42
2018-09-23T22:47:27.637Z,100221.67
2018-09-23T22:52:30.993Z,100226.16
2018-09-23T22:57:34.412Z,100227.05
2018-09-23T23:02:37.739Z,100245.79
2018-09-23T23:07:41.054Z,100246.48
2018-09-23T23:12:44.388Z,100266.39
2018-09-23T23:17:47.698Z,100266.89
2018-09-23T23:22:51.182Z,100282.50
2018-09-23T23:27:54.535Z,100300.38
2018-09-23T23:32:57.865Z,100308.22
2018-09-23T23:38:01.207Z,100325.97
2018-09-23T23:43:04.623Z,100324.33
2018-09-23T23:48:07.951Z,100349.85
2018-09-23T23:53:11.278Z,100375.05
2018-09-23T23:58:14.616Z,100381.88
